createdAt,value
2018-01-02T00:00:33.788Z,4.30
2018-01-02T00:03:02.264Z,3.57
2018-01-02T00:05:30.748Z,2.00
2018-01-02T00:07:59.434Z,4.43
2018-01-02T00:10:27.910Z,7.73
2018-01-02T00:13:03.287Z,3.37
2018-01-02T00:15:32.859Z,5.27
2018-01-02T00:18:01.992Z,5.63
2018-01-02T00:20:30.541Z,7.23
2018-01-02T00:22:59.023Z,4.67
2018-01-02T00:25:30.982Z,3.70
2018-01-02T00:27:59.854Z,2.10
2018-01-02T00:30:36.220Z,2.13
2018-01-02T00:33:04.721Z,6.80
2018-01-02T00:35:33.260Z,3.17
2018-01-02T00:38:21.242Z,3.40
2018-01-02T00:40:49.822Z,5.40
2018-01-02T00:43:18.407Z,3.07
2018-01-02T00:45:46.885Z,5.40
2018-01-02T00:48:16.498Z,3.60
2018-01-02T00:50:45.081Z,6.20
2018-01-02T00:53:14.584Z,2.50
2018-01-02T00:55:43.172Z,4.53
2018-01-02T00:58:25.167Z,3.73
2018-01-02T01:00:53.642Z,3.20
2018-01-02T01:03:23.784Z,5.93
2018-01-02T01:05:52.251Z,4.37
2018-01-02T01:08:20.829Z,4.20
2018-01-02T01:10:49.240Z,6.77
2018-01-02T01:13:17.787Z,2.70
2018-01-02T01:15:50.059Z,9.37
2018-01-02T01:18:18.538Z,12.00
2018-01-02T01:20:47.839Z,8.00
2018-01-02T01:23:16.261Z,10.70
2018-01-02T01:25:48.086Z,7.47
2018-01-02T01:28:17.484Z,6.43
2018-01-02T01:30:45.914Z,45.70
2018-01-02T01:33:16.503Z,66.27
2018-01-02T01:35:44.861Z,45.97
2018-01-02T01:38:13.503Z,21.10
2018-01-02T01:40:48.022Z,12.20
2018-01-02T01:43:16.562Z,22.63
2018-01-02T01:45:44.904Z,27.50
2018-01-02T01:48:14.138Z,40.97
2018-01-02T01:50:42.619Z,29.53
2018-01-02T01:53:11.605Z,38.83
2018-01-02T01:55:40.094Z,21.73
2018-01-02T01:58:16.367Z,14.43
2018-01-02T02:00:44.773Z,19.30
2018-01-02T02:03:14.950Z,13.43
2018-01-02T02:05:43.288Z,23.13
2018-01-02T02:08:11.813Z,15.57
2018-01-02T02:10:40.210Z,12.73
2018-01-02T02:13:08.775Z,10.93
2018-01-02T02:15:37.147Z,13.77
2018-01-02T02:18:19.452Z,19.63
2018-01-02T02:20:47.943Z,9.77
2018-01-02T02:23:16.517Z,8.77
2018-01-02T02:25:44.999Z,6.80
2018-01-02T02:28:13.484Z,9.47
2018-01-02T02:30:49.643Z,8.53
2018-01-02T02:33:17.986Z,6.97
2018-01-02T02:35:47.234Z,15.00
2018-01-02T02:38:28.220Z,9.43
2018-01-02T02:41:10.541Z,12.80
2018-01-02T02:43:38.906Z,13.77
2018-01-02T02:46:07.357Z,14.03
2018-01-02T02:48:36.348Z,15.43
2018-01-02T02:51:05.545Z,19.77
2018-01-02T02:53:33.897Z,6.40
2018-01-02T02:56:03.056Z,17.33
2018-01-02T02:58:31.405Z,10.57
2018-01-02T03:00:59.883Z,22.63
2018-01-02T03:03:41.898Z,10.27
2018-01-02T03:06:10.253Z,12.10
2018-01-02T03:08:39.552Z,9.13
2018-01-02T03:11:13.097Z,11.07
2018-01-02T03:13:41.637Z,7.43
2018-01-02T03:16:10.328Z,12.13
2018-01-02T03:18:38.904Z,10.23
2018-01-02T03:21:07.304Z,9.20
2018-01-02T03:23:35.665Z,8.30
2018-01-02T03:26:04.141Z,10.23
2018-01-02T03:28:39.108Z,8.77
2018-01-02T03:31:07.662Z,12.87
2018-01-02T03:33:37.424Z,12.30
2018-01-02T03:36:05.951Z,10.07
2018-01-02T03:38:34.307Z,9.70
2018-01-02T03:41:03.527Z,12.20
2018-01-02T03:43:40.609Z,8.10
2018-01-02T03:46:09.090Z,10.43
2018-01-02T03:48:37.516Z,8.10
2018-01-02T03:51:05.851Z,10.63
2018-01-02T03:53:34.328Z,8.53
2018-01-02T03:56:02.815Z,9.43
2018-01-02T03:58:31.302Z,11.27
2018-01-02T04:00:59.667Z,7.27
2018-01-02T04:03:28.250Z,9.47
2018-01-02T04:05:56.988Z,8.90
2018-01-02T04:08:25.624Z,11.97
2018-01-02T04:10:54.104Z,12.10
2018-01-02T04:13:23.542Z,8.03
2018-01-02T04:15:51.868Z,10.20
2018-01-02T04:18:32.555Z,13.80
2018-01-02T04:21:00.995Z,11.90
2018-01-02T04:23:30.108Z,9.67
2018-01-02T04:25:59.325Z,11.63
2018-01-02T04:28:27.913Z,15.77
2018-01-02T04:31:04.541Z,10.90
2018-01-02T04:33:33.726Z,10.43
2018-01-02T04:36:02.109Z,13.20
2018-01-02T04:38:31.252Z,20.53
2018-01-02T04:40:59.729Z,16.17
2018-01-02T04:43:28.214Z,16.67
2018-01-02T04:46:00.704Z,12.37
2018-01-02T04:48:29.165Z,9.90
2018-01-02T04:50:57.592Z,14.10
2018-01-02T04:53:26.364Z,14.73
2018-01-02T04:55:58.930Z,13.33
2018-01-02T04:58:27.333Z,14.73
2018-01-02T05:00:56.896Z,23.23
2018-01-02T05:03:27.662Z,15.03
2018-01-02T05:05:56.002Z,17.03
2018-01-02T05:08:24.345Z,12.90
2018-01-02T05:10:52.643Z,12.43
2018-01-02T05:13:21.862Z,15.53
2018-01-02T05:15:50.353Z,15.40
2018-01-02T05:18:19.500Z,18.03
2018-01-02T05:20:48.125Z,25.70
2018-01-02T05:23:16.603Z,20.73
2018-01-02T05:25:45.016Z,24.77
2018-01-02T05:28:20.529Z,14.50
2018-01-02T05:30:49.109Z,21.90
2018-01-02T05:33:17.596Z,23.03
2018-01-02T05:35:46.074Z,18.27
2018-01-02T05:38:14.445Z,26.73
2018-01-02T05:40:42.931Z,23.30
2018-01-02T05:43:11.362Z,15.63
2018-01-02T05:45:40.438Z,23.30
2018-01-02T05:48:08.886Z,25.73
2018-01-02T05:50:37.474Z,30.10
2018-01-02T05:53:07.821Z,21.40
2018-01-02T05:55:38.067Z,17.30
2018-01-02T05:58:06.600Z,21.70
2018-01-02T06:00:35.185Z,22.33
2018-01-02T06:03:03.765Z,25.43
2018-01-02T06:05:32.246Z,25.57
2018-01-02T06:08:00.828Z,30.40
2018-01-02T06:10:29.310Z,39.23
2018-01-02T06:12:57.792Z,34.10
2018-01-02T06:15:39.938Z,30.13
2018-01-02T06:18:08.452Z,30.87
2018-01-02T06:20:37.504Z,26.07
2018-01-02T06:23:06.166Z,28.30
2018-01-02T06:25:40.894Z,19.47
2018-01-02T06:28:10.897Z,33.40
2018-01-02T06:30:45.674Z,17.27
2018-01-02T06:33:15.490Z,23.10
2018-01-02T06:35:44.733Z,26.53
2018-01-02T06:38:13.423Z,34.23
2018-01-02T06:40:41.902Z,22.80
2018-01-02T06:43:29.534Z,23.30
2018-01-02T06:45:57.958Z,37.07
2018-01-02T06:48:26.495Z,33.57
2018-01-02T06:50:54.981Z,26.47
2018-01-02T06:53:23.356Z,22.03
2018-01-02T06:55:51.836Z,43.63
2018-01-02T06:58:20.321Z,29.07
2018-01-02T07:00:48.898Z,26.83
2018-01-02T07:03:17.485Z,23.23
2018-01-02T07:05:45.967Z,26.60
2018-01-02T07:08:15.260Z,22.00
2018-01-02T07:10:43.748Z,26.53
2018-01-02T07:13:12.334Z,29.40
2018-01-02T07:15:40.726Z,25.63
2018-01-02T07:18:09.194Z,22.27
2018-01-02T07:20:37.553Z,27.80
2018-01-02T07:23:06.044Z,42.87
2018-01-02T07:25:35.854Z,31.83
2018-01-02T07:28:06.021Z,29.53
2018-01-02T07:30:34.557Z,30.87
2018-01-02T07:33:03.369Z,30.00
2018-01-02T07:35:36.027Z,30.93
2018-01-02T07:38:04.523Z,21.57
2018-01-02T07:40:33.314Z,40.27
2018-01-02T07:43:01.884Z,41.13
2018-01-02T07:45:30.358Z,12.30
2018-01-02T07:47:58.845Z,25.07
2018-01-02T07:50:29.328Z,22.77
2018-01-02T07:52:58.920Z,24.37
2018-01-02T07:55:28.058Z,21.10
2018-01-02T07:57:57.468Z,19.00
2018-01-02T08:00:30.276Z,18.37
2018-01-02T08:02:59.762Z,21.17
2018-01-02T08:05:28.281Z,27.57
2018-01-02T08:07:57.381Z,26.60
2018-01-02T08:10:32.884Z,20.60
2018-01-02T08:13:02.636Z,32.97
2018-01-02T08:15:30.967Z,23.30
2018-01-02T08:18:00.376Z,22.30
2018-01-02T08:20:29.813Z,22.53
2018-01-02T08:22:59.743Z,29.10
2018-01-02T08:25:28.798Z,24.43
2018-01-02T08:28:02.181Z,22.33
2018-01-02T08:30:30.873Z,33.97
2018-01-02T08:32:59.304Z,15.00
2018-01-02T08:35:29.186Z,40.17
2018-01-02T08:37:57.647Z,31.10
2018-01-02T08:40:26.463Z,34.57
2018-01-02T08:42:54.971Z,20.07
2018-01-02T08:45:25.053Z,22.97
2018-01-02T08:47:53.648Z,14.23
2018-01-02T08:50:28.371Z,19.83
2018-01-02T08:52:56.922Z,16.23
2018-01-02T08:55:25.508Z,12.10
2018-01-02T08:57:53.986Z,19.83
2018-01-02T09:00:23.203Z,15.07
2018-01-02T09:02:52.792Z,17.33
2018-01-02T09:05:21.895Z,17.20
2018-01-02T09:07:50.576Z,9.13
2018-01-02T09:10:19.262Z,9.07
2018-01-02T09:12:48.667Z,12.57
2018-01-02T09:15:17.301Z,11.27
2018-01-02T09:17:46.489Z,20.70
2018-01-02T09:20:15.033Z,9.33
2018-01-02T09:22:43.609Z,13.40
2018-01-02T09:25:12.767Z,5.70
2018-01-02T09:27:42.107Z,9.03
2018-01-02T09:30:10.514Z,12.87
2018-01-02T09:32:39.738Z,8.87
2018-01-02T09:35:09.118Z,9.60
2018-01-02T09:37:37.577Z,8.20
2018-01-02T09:40:06.251Z,27.50
2018-01-02T09:42:34.684Z,9.37
2018-01-02T09:45:03.221Z,10.57
2018-01-02T09:47:31.799Z,17.63
2018-01-02T09:50:00.302Z,14.70
2018-01-02T09:52:28.761Z,9.90
2018-01-02T09:54:57.442Z,10.13
2018-01-02T09:57:27.874Z,28.53
2018-01-02T09:59:56.268Z,8.50
2018-01-02T10:02:24.627Z,17.90
2018-01-02T10:04:52.965Z,12.80
2018-01-02T10:07:21.431Z,14.37
2018-01-02T10:09:49.966Z,12.90
2018-01-02T10:12:18.621Z,20.00
2018-01-02T10:14:47.808Z,33.80
2018-01-02T10:17:17.871Z,6.90
2018-01-02T10:19:46.450Z,21.57
2018-01-02T10:22:15.091Z,7.63
2018-01-02T10:24:46.068Z,20.80
2018-01-02T10:27:14.552Z,27.47
2018-01-02T10:29:43.026Z,23.57
2018-01-02T10:32:11.514Z,25.03
2018-01-02T10:34:40.103Z,23.13
2018-01-02T10:37:11.793Z,26.63
2018-01-02T10:39:40.955Z,13.03
2018-01-02T10:42:09.541Z,18.67
2018-01-02T10:44:43.964Z,13.70
2018-01-02T10:47:23.854Z,7.30
2018-01-02T10:49:52.338Z,15.50
2018-01-02T10:52:21.379Z,8.50
2018-01-02T10:54:52.461Z,21.37
2018-01-02T10:57:23.133Z,18.90
2018-01-02T10:59:59.471Z,29.73
2018-01-02T11:02:28.008Z,9.43
2018-01-02T11:04:56.486Z,12.60
2018-01-02T11:07:29.569Z,17.93
2018-01-02T11:09:58.111Z,8.47
2018-01-02T11:12:32.370Z,11.00
2018-01-02T11:15:00.954Z,11.73
2018-01-02T11:17:30.153Z,11.03
2018-01-02T11:19:58.980Z,12.03
2018-01-02T11:22:29.956Z,16.60
2018-01-02T11:24:58.317Z,17.50
2018-01-02T11:27:28.944Z,6.87
2018-01-02T11:29:57.470Z,11.53
2018-01-02T11:32:26.206Z,12.93
2018-01-02T11:34:56.064Z,12.63
2018-01-02T11:37:24.600Z,14.17
2018-01-02T11:39:53.145Z,9.53
2018-01-02T11:42:21.585Z,14.77
2018-01-02T11:44:52.069Z,22.27
2018-01-02T11:47:20.458Z,8.33
2018-01-02T11:49:48.908Z,11.00
2018-01-02T11:52:17.295Z,16.47
2018-01-02T11:55:00.568Z,7.57
2018-01-02T11:57:29.841Z,16.35
2018-01-02T11:59:58.287Z,9.43
2018-01-02T12:02:27.830Z,10.05
2018-01-02T12:04:57.156Z,16.98
2018-01-02T12:07:26.390Z,8.05
2018-01-02T12:09:55.178Z,13.68
2018-01-02T12:12:23.555Z,14.27
2018-01-02T12:14:51.969Z,9.20
2018-01-02T12:17:20.421Z,22.63
2018-01-02T12:19:49.614Z,11.83
2018-01-02T12:22:18.198Z,8.83
2018-01-02T12:24:47.065Z,9.37
2018-01-02T12:27:15.875Z,10.77
2018-01-02T12:29:44.296Z,8.10
2018-01-02T12:32:13.104Z,12.27
2018-01-02T12:34:43.766Z,7.70
2018-01-02T12:37:23.034Z,9.88
2018-01-02T12:39:52.218Z,10.00
2018-01-02T12:42:21.029Z,12.83
2018-01-02T12:44:53.245Z,11.40
2018-01-02T12:47:29.443Z,4.10
2018-01-02T12:49:58.218Z,25.00
2018-01-02T12:52:26.697Z,14.00
2018-01-02T12:54:55.245Z,39.43
2018-01-02T12:57:23.794Z,6.37
2018-01-02T12:59:52.390Z,12.70
2018-01-02T13:02:35.893Z,9.73
2018-01-02T13:05:04.268Z,13.35
2018-01-02T13:07:33.609Z,17.07
2018-01-02T13:10:02.792Z,8.00
2018-01-02T13:12:31.118Z,7.78
2018-01-02T13:15:06.887Z,11.93
2018-01-02T13:17:35.317Z,12.60
2018-01-02T13:20:05.970Z,8.23
2018-01-02T13:22:35.846Z,9.13
2018-01-02T13:25:11.465Z,10.35
2018-01-02T13:27:40.929Z,7.50
2018-01-02T13:30:09.292Z,13.02
2018-01-02T13:32:39.561Z,15.20
2018-01-02T13:35:08.072Z,15.40
2018-01-02T13:37:37.054Z,21.83
2018-01-02T13:40:05.451Z,10.93
2018-01-02T13:42:33.856Z,10.60
2018-01-02T13:45:03.039Z,20.83
2018-01-02T13:47:42.607Z,16.27
2018-01-02T13:50:12.437Z,36.97
2018-01-02T13:52:41.078Z,22.17
2018-01-02T13:55:09.386Z,16.20
2018-01-02T13:57:53.817Z,16.47
2018-01-02T14:00:22.980Z,25.70
2018-01-02T14:02:51.570Z,19.27
2018-01-02T14:05:20.125Z,21.20
2018-01-02T14:07:49.221Z,16.27
2018-01-02T14:10:18.527Z,27.80
2018-01-02T14:12:46.996Z,15.00
2018-01-02T14:15:21.432Z,20.70
2018-01-02T14:17:56.564Z,35.23
2018-01-02T14:20:25.252Z,26.97
2018-01-02T14:22:53.835Z,29.63
2018-01-02T14:25:22.515Z,11.57
2018-01-02T14:27:51.097Z,18.60
2018-01-02T14:30:24.136Z,10.00
2018-01-02T14:32:52.593Z,23.00
2018-01-02T14:35:21.970Z,13.90
2018-01-02T14:37:55.928Z,21.93
2018-01-02T14:40:24.464Z,16.20
2018-01-02T14:42:53.795Z,10.30
2018-01-02T14:45:22.338Z,13.20
2018-01-02T14:47:51.024Z,15.83
2018-01-02T14:50:19.425Z,16.60
2018-01-02T14:52:48.191Z,8.47
2018-01-02T14:55:16.692Z,10.27
2018-01-02T14:57:45.206Z,10.47
2018-01-02T15:00:16.237Z,19.20
2018-01-02T15:02:53.278Z,20.97
2018-01-02T15:05:22.077Z,13.23
2018-01-02T15:07:51.193Z,16.53
2018-01-02T15:10:19.858Z,28.80
2018-01-02T15:12:48.438Z,20.57
2018-01-02T15:15:17.010Z,19.10
2018-01-02T15:17:46.390Z,12.20
2018-01-02T15:20:15.890Z,14.57
2018-01-02T15:22:45.442Z,15.50
2018-01-02T15:25:14.175Z,26.53
2018-01-02T15:27:44.552Z,10.13
2018-01-02T15:30:13.680Z,19.53
2018-01-02T15:32:43.851Z,10.30
2018-01-02T15:35:12.228Z,18.70
2018-01-02T15:37:41.484Z,36.43
2018-01-02T15:40:11.549Z,16.17
2018-01-02T15:42:39.966Z,27.60
2018-01-02T15:45:08.366Z,20.80
2018-01-02T15:47:37.823Z,17.43
2018-01-02T15:50:06.197Z,25.80
2018-01-02T15:52:34.672Z,26.10
2018-01-02T15:55:03.031Z,31.93
2018-01-02T15:57:31.869Z,25.07
2018-01-02T16:00:00.293Z,27.53
2018-01-02T16:02:29.557Z,24.50
2018-01-02T16:04:59.629Z,16.63
2018-01-02T16:07:28.342Z,28.80
2018-01-02T16:09:57.948Z,12.07
2018-01-02T16:12:27.457Z,10.50
2018-01-02T16:14:56.848Z,18.10
2018-01-02T16:17:30.002Z,13.47
2018-01-02T16:20:00.419Z,14.77
2018-01-02T16:22:36.522Z,14.70
2018-01-02T16:25:07.279Z,24.03
2018-01-02T16:27:36.336Z,32.43
2018-01-02T16:30:05.036Z,21.23
2018-01-02T16:32:33.715Z,19.17
2018-01-02T16:35:02.228Z,17.43
2018-01-02T16:37:30.671Z,11.03
2018-01-02T16:40:00.037Z,27.80
2018-01-02T16:42:30.615Z,29.93
2018-01-02T16:44:59.201Z,17.20
2018-01-02T16:47:27.919Z,16.13
2018-01-02T16:50:01.571Z,18.83
2018-01-02T16:52:30.184Z,28.30
2018-01-02T16:54:58.753Z,16.57
2018-01-02T16:57:27.256Z,9.50
2018-01-02T16:59:55.710Z,8.27
2018-01-02T17:02:42.733Z,11.63
2018-01-02T17:05:10.691Z,4.97
2018-01-02T17:07:39.714Z,10.80
2018-01-02T17:10:09.087Z,14.03
2018-01-02T17:12:38.555Z,6.73
2018-01-02T17:15:08.711Z,7.57
2018-01-02T17:17:37.196Z,9.63
2018-01-02T17:20:11.009Z,9.30
2018-01-02T17:22:44.493Z,4.47
2018-01-02T17:25:14.103Z,7.27
2018-01-02T17:27:42.558Z,10.90
2018-01-02T17:30:12.706Z,9.17
2018-01-02T17:32:41.014Z,9.93
2018-01-02T17:35:10.404Z,9.07
2018-01-02T17:37:39.284Z,19.27
2018-01-02T17:40:07.921Z,14.73
2018-01-02T17:42:36.540Z,8.80
2018-01-02T17:45:10.450Z,14.63
2018-01-02T17:47:40.630Z,10.30
2018-01-02T17:50:12.663Z,13.73
2018-01-02T17:52:43.128Z,14.23
2018-01-02T17:55:17.996Z,12.00
2018-01-02T17:57:47.805Z,5.53
2018-01-02T18:00:18.559Z,6.53
2018-01-02T18:02:48.867Z,4.83
2018-01-02T18:05:24.148Z,7.23
2018-01-02T18:07:53.355Z,12.63
2018-01-02T18:10:29.877Z,6.03
2018-01-02T18:12:58.355Z,10.20
2018-01-02T18:15:27.071Z,7.37
2018-01-02T18:17:56.301Z,3.77
2018-01-02T18:20:25.536Z,10.13
2018-01-02T18:22:53.931Z,4.43
2018-01-02T18:25:24.539Z,5.60
2018-01-02T18:27:53.431Z,5.93
2018-01-02T18:30:21.857Z,13.73
2018-01-02T18:32:51.113Z,12.03
2018-01-02T18:35:20.032Z,9.77
2018-01-02T18:37:49.306Z,11.30
2018-01-02T18:40:17.885Z,5.87
2018-01-02T18:42:46.372Z,6.73
2018-01-02T18:45:27.858Z,7.13
2018-01-02T18:47:56.381Z,6.30
2018-01-02T18:50:28.328Z,12.33
2018-01-02T18:53:01.719Z,6.70
2018-01-02T18:55:31.106Z,5.70
2018-01-02T18:58:03.166Z,9.03
2018-01-02T19:00:31.645Z,9.60
2018-01-02T19:03:00.228Z,6.40
2018-01-02T19:05:36.869Z,11.17
2018-01-02T19:08:05.904Z,10.10
2018-01-02T19:10:41.359Z,11.03
2018-01-02T19:13:09.851Z,7.13
2018-01-02T19:15:38.401Z,3.80
2018-01-02T19:18:07.393Z,4.30
2018-01-02T19:20:36.954Z,8.20
2018-01-02T19:23:06.275Z,9.40
2018-01-02T19:25:34.780Z,3.67
2018-01-02T19:28:04.337Z,6.83
2018-01-02T19:30:33.286Z,7.83
2018-01-02T19:33:03.093Z,8.13
2018-01-02T19:35:31.500Z,7.17
2018-01-02T19:38:06.499Z,8.30
2018-01-02T19:40:34.914Z,6.30
2018-01-02T19:43:03.310Z,21.67
2018-01-02T19:45:44.862Z,14.50
2018-01-02T19:48:15.007Z,6.20
2018-01-02T19:50:50.287Z,8.13
2018-01-02T19:53:32.213Z,9.83
2018-01-02T19:56:07.070Z,4.80
2018-01-02T19:58:35.614Z,14.13
2018-01-02T20:01:04.097Z,23.73
2018-01-02T20:03:32.529Z,19.43
2018-01-02T20:06:00.910Z,14.00
2018-01-02T20:08:31.275Z,21.17
2018-01-02T20:10:59.821Z,19.03
2018-01-02T20:13:32.878Z,19.80
2018-01-02T20:16:03.730Z,35.57
2018-01-02T20:18:38.744Z,14.90
2018-01-02T20:21:07.626Z,10.53
2018-01-02T20:23:42.241Z,16.27
2018-01-02T20:26:15.324Z,7.17
2018-01-02T20:28:44.868Z,9.63
2018-01-02T20:31:18.086Z,4.17
2018-01-02T20:33:47.842Z,6.23
2018-01-02T20:36:24.379Z,14.47
2018-01-02T20:38:52.889Z,13.10
2018-01-02T20:41:21.370Z,8.70
2018-01-02T20:43:49.883Z,4.93
2018-01-02T20:46:18.339Z,13.83
2018-01-02T20:48:49.624Z,5.43
2018-01-02T20:51:24.774Z,4.30
2018-01-02T20:53:54.228Z,6.53
2018-01-02T20:56:25.719Z,6.30
2018-01-02T20:58:54.194Z,6.87
2018-01-02T21:01:30.559Z,10.67
2018-01-02T21:04:00.686Z,6.37
2018-01-02T21:06:30.052Z,9.30
2018-01-02T21:09:04.623Z,8.33
2018-01-02T21:11:32.997Z,4.90
2018-01-02T21:14:04.455Z,4.10
2018-01-02T21:16:33.183Z,10.77
2018-01-02T21:19:01.859Z,19.67
2018-01-02T21:21:31.097Z,9.83
2018-01-02T21:24:04.350Z,9.27
2018-01-02T21:26:32.844Z,6.97
2018-01-02T21:29:01.629Z,7.93
2018-01-02T21:31:30.318Z,8.07
2018-01-02T21:33:58.951Z,13.43
2018-01-02T21:36:28.565Z,7.93
2018-01-02T21:38:57.911Z,17.23
2018-01-02T21:41:26.557Z,13.30
2018-01-02T21:43:55.899Z,6.33
2018-01-02T21:46:25.238Z,10.27
2018-01-02T21:48:54.660Z,14.50
2018-01-02T21:51:23.939Z,8.03
2018-01-02T21:53:52.469Z,6.27
2018-01-02T21:56:29.084Z,11.53
2018-01-02T21:58:59.386Z,14.87
2018-01-02T22:01:28.044Z,7.23
2018-01-02T22:03:58.672Z,8.40
2018-01-02T22:06:33.308Z,13.73
2018-01-02T22:09:06.806Z,11.97
2018-01-02T22:11:35.591Z,21.63
2018-01-02T22:14:04.177Z,13.23
2018-01-02T22:16:33.507Z,7.90
2018-01-02T22:19:02.733Z,20.13
2018-01-02T22:21:33.319Z,10.30
2018-01-02T22:24:02.830Z,9.63
2018-01-02T22:26:32.610Z,3.50
2018-01-02T22:29:01.305Z,8.63
2018-01-02T22:31:29.712Z,3.43
2018-01-02T22:34:13.333Z,5.50
2018-01-02T22:36:41.806Z,7.30
2018-01-02T22:39:11.358Z,4.77
2018-01-02T22:41:40.049Z,5.50
2018-01-02T22:44:12.259Z,4.20
2018-01-02T22:46:47.562Z,7.80
2018-01-02T22:49:16.479Z,3.43
2018-01-02T22:51:46.197Z,9.63
2018-01-02T22:54:28.036Z,4.20
2018-01-02T22:57:03.730Z,7.43
2018-01-02T22:59:32.231Z,10.93
2018-01-02T23:02:00.555Z,6.70
2018-01-02T23:04:37.178Z,7.83
2018-01-02T23:07:06.478Z,7.80
2018-01-02T23:09:35.075Z,11.10
2018-01-02T23:12:03.539Z,8.47
2018-01-02T23:14:32.652Z,4.03
2018-01-02T23:17:01.083Z,1.57
2018-01-02T23:19:30.433Z,2.43
2018-01-02T23:21:59.834Z,2.90
2018-01-02T23:24:43.414Z,3.50
2018-01-02T23:27:18.616Z,11.67
2018-01-02T23:29:48.234Z,19.90
2018-01-02T23:32:18.132Z,13.10
2018-01-02T23:34:46.546Z,2.73
2018-01-02T23:37:14.939Z,8.40
2018-01-02T23:39:54.950Z,15.07
2018-01-02T23:42:23.390Z,2.37
2018-01-02T23:45:07.370Z,7.03
2018-01-02T23:47:36.829Z,5.53
2018-01-02T23:50:05.773Z,5.43
2018-01-02T23:52:45.322Z,4.03
2018-01-02T23:55:15.578Z,5.03
2018-01-02T23:57:44.906Z,1.37
